createdAt,value
2023-04-23T00:04:24.266Z,101398.97
2023-04-23T00:09:33.687Z,101392.16
2023-04-23T00:14:36.979Z,101389.34
2023-04-23T00:19:39.787Z,101399.06
2023-04-23T00:24:42.728Z,101406.66
2023-04-23T00:29:46.759Z,101404.50
2023-04-23T00:34:49.656Z,101406.97
2023-04-23T00:39:52.456Z,101401.09
2023-04-23T00:44:56.328Z,101389.13
2023-04-23T00:50:00.234Z,101390.47
2023-04-23T00:55:03.720Z,101394.88
2023-04-23T01:00:07.884Z,101391.06
2023-04-23T01:05:11.832Z,101407.19
2023-04-23T01:10:14.764Z,101406.50
2023-04-23T01:15:17.989Z,101396.59
2023-04-23T01:20:21.273Z,101390.69
2023-04-23T01:25:24.032Z,101393.41
2023-04-23T01:30:27.995Z,101387.56
2023-04-23T01:35:32.349Z,101375.25
2023-04-23T01:40:35.110Z,101402.22
2023-04-23T01:45:37.977Z,101403.28
2023-04-23T01:50:41.501Z,101400.28
2023-04-23T01:55:46.679Z,101395.91
2023-04-23T02:00:50.298Z,101392.13
2023-04-23T02:05:55.354Z,101403.75
2023-04-23T02:10:58.267Z,101408.47
2023-04-23T02:16:01.249Z,101411.09
2023-04-23T02:21:05.046Z,101407.22
2023-04-23T02:26:08.368Z,101413.00
2023-04-23T02:31:11.305Z,101405.13
2023-04-23T02:36:16.485Z,101413.38
2023-04-23T02:41:19.280Z,101398.56
2023-04-23T02:46:22.245Z,101391.22
2023-04-23T02:51:25.031Z,101388.22
2023-04-23T02:56:27.818Z,101383.50
2023-04-23T03:01:30.686Z,101384.06
2023-04-23T03:06:35.956Z,101374.34
2023-04-23T03:11:38.911Z,101368.25
2023-04-23T03:16:42.423Z,101375.78
2023-04-23T03:21:45.399Z,101369.72
2023-04-23T03:26:48.183Z,101367.88
2023-04-23T03:31:51.439Z,101359.22
2023-04-23T03:36:54.378Z,101356.34
2023-04-23T03:41:58.544Z,101351.34
2023-04-23T03:47:05.015Z,101356.94
2023-04-23T03:52:08.779Z,101346.91
2023-04-23T03:57:14.861Z,101348.06
2023-04-23T04:02:41.926Z,101336.69
2023-04-23T04:07:44.944Z,101343.28
2023-04-23T04:12:48.385Z,101337.06
2023-04-23T04:17:51.285Z,101340.16
2023-04-23T04:22:54.127Z,101324.28
2023-04-23T04:27:57.967Z,101311.34
2023-04-23T04:33:01.772Z,101303.59
2023-04-23T04:38:04.520Z,101307.19
2023-04-23T04:43:07.582Z,101299.78
2023-04-23T04:48:10.386Z,101296.81
2023-04-23T04:53:13.529Z,101277.31
2023-04-23T04:58:16.458Z,101285.88
2023-04-23T05:03:20.050Z,101282.47
2023-04-23T05:08:23.548Z,101275.34
2023-04-23T05:13:26.450Z,101280.22
2023-04-23T05:18:30.085Z,101267.25
2023-04-23T05:23:33.567Z,101264.56
2023-04-23T05:28:36.977Z,101247.34
2023-04-23T05:33:49.256Z,101239.91
2023-04-23T05:38:53.037Z,101240.31
2023-04-23T05:43:55.862Z,101237.50
2023-04-23T05:48:58.629Z,101230.34
2023-04-23T05:54:01.384Z,101221.06
2023-04-23T05:59:04.482Z,101227.25
2023-04-23T06:04:08.536Z,101208.75
2023-04-23T06:09:11.385Z,101203.94
2023-04-23T06:14:14.344Z,101195.84
2023-04-23T06:19:17.226Z,101202.94
2023-04-23T06:24:20.109Z,101205.72
2023-04-23T06:29:22.863Z,101187.94
2023-04-23T06:34:32.960Z,101195.03
2023-04-23T06:39:35.697Z,101185.13
2023-04-23T06:44:38.584Z,101172.59
2023-04-23T06:49:41.682Z,101179.34
2023-04-23T06:54:44.607Z,101166.22
2023-04-23T06:59:48.014Z,101164.91
2023-04-23T07:04:51.885Z,101158.41
2023-04-23T07:09:54.851Z,101158.91
2023-04-23T07:14:57.898Z,101152.00
2023-04-23T07:20:01.192Z,101140.56
2023-04-23T07:25:05.758Z,101134.09
2023-04-23T07:30:09.746Z,101143.84
2023-04-23T07:35:12.560Z,101134.00
2023-04-23T07:40:15.566Z,101120.63
2023-04-23T07:45:19.644Z,101121.06
2023-04-23T07:50:22.518Z,101103.53
2023-04-23T07:55:25.370Z,101084.84
2023-04-23T08:00:28.114Z,101083.25
2023-04-23T08:05:31.313Z,101086.19
2023-04-23T08:10:34.417Z,101077.66
2023-04-23T08:15:37.745Z,101066.34
2023-04-23T08:20:40.638Z,101073.19
2023-04-23T08:25:43.766Z,101061.88
2023-04-23T08:30:47.112Z,101053.78
2023-04-23T08:35:50.131Z,101053.63
2023-04-23T08:40:57.386Z,101037.09
2023-04-23T08:46:04.689Z,101036.00
2023-04-23T08:51:10.461Z,101032.41
2023-04-23T08:56:14.463Z,101027.13
2023-04-23T09:01:18.546Z,101011.50
2023-04-23T09:06:22.523Z,101014.94
2023-04-23T09:11:28.180Z,101010.03
2023-04-23T09:16:31.198Z,100998.28
2023-04-23T09:21:34.464Z,100991.69
2023-04-23T09:26:44.961Z,100986.88
2023-04-23T09:31:50.051Z,100982.88
2023-04-23T09:36:54.059Z,100980.34
2023-04-23T09:42:04.097Z,100971.78
2023-04-23T09:47:12.431Z,100968.22
2023-04-23T09:52:15.368Z,100967.31
2023-04-23T09:57:18.149Z,100937.22
2023-04-23T10:02:21.469Z,100947.41
2023-04-23T10:07:29.833Z,100930.78
2023-04-23T10:12:51.970Z,100915.72
2023-04-23T10:17:56.160Z,100914.72
2023-04-23T10:23:01.232Z,100914.56
2023-04-23T10:28:05.131Z,100912.72
2023-04-23T10:33:15.802Z,100909.09
2023-04-23T10:38:28.633Z,100899.38
2023-04-23T10:43:31.861Z,100904.28
2023-04-23T10:49:15.787Z,100900.31
2023-04-23T10:54:20.324Z,100896.41
2023-04-23T10:59:23.367Z,100891.16
2023-04-23T11:04:30.533Z,100883.47
2023-04-23T11:10:13.701Z,100874.06
2023-04-23T11:15:19.736Z,100873.22
2023-04-23T11:20:23.085Z,100866.69
2023-04-23T11:25:28.075Z,100862.84
2023-04-23T11:30:31.459Z,100849.16
2023-04-23T11:35:40.899Z,100857.56
2023-04-23T11:40:48.794Z,100845.06
2023-04-23T11:45:51.718Z,100844.66
2023-04-23T11:50:54.618Z,100840.84
2023-04-23T11:55:58.344Z,100827.44
2023-04-23T12:01:02.498Z,100827.72
2023-04-23T12:06:06.257Z,100834.16
2023-04-23T12:11:09.028Z,100824.38
2023-04-23T12:16:11.906Z,100816.25
2023-04-23T12:21:15.283Z,100812.34
2023-04-23T12:26:20.773Z,100806.31
2023-04-23T12:31:25.203Z,100799.81
2023-04-23T12:36:30.203Z,100798.91
2023-04-23T12:41:33.616Z,100797.69
2023-04-23T12:46:36.571Z,100794.63
2023-04-23T12:51:39.454Z,100793.09
2023-04-23T12:56:42.358Z,100791.16
2023-04-23T13:01:45.258Z,100782.06
2023-04-23T13:06:48.489Z,100784.59
2023-04-23T13:11:51.397Z,100784.22
2023-04-23T13:16:54.547Z,100769.16
2023-04-23T13:21:57.464Z,100774.16
2023-04-23T13:27:01.995Z,100772.25
2023-04-23T13:32:04.896Z,100771.63
2023-04-23T13:37:09.599Z,100762.88
2023-04-23T13:42:12.439Z,100759.22
2023-04-23T13:47:15.226Z,100762.78
2023-04-23T13:52:18.057Z,100765.41
2023-04-23T13:57:20.856Z,100756.16
2023-04-23T14:02:24.495Z,100755.91
2023-04-23T14:07:27.308Z,100754.09
2023-04-23T14:12:30.198Z,100747.91
2023-04-23T14:17:33.275Z,100738.25
2023-04-23T14:22:37.188Z,100741.22
2023-04-23T14:27:42.430Z,100736.97
2023-04-23T14:32:49.678Z,100728.53
2023-04-23T14:37:52.636Z,100724.97
2023-04-23T14:42:59.381Z,100724.59
2023-04-23T14:48:07.907Z,100720.38
2023-04-23T14:53:11.047Z,100705.09
2023-04-23T14:58:13.849Z,100699.91
2023-04-23T15:03:16.997Z,100699.38
2023-04-23T15:08:21.405Z,100688.19
2023-04-23T15:13:40.299Z,100686.41
2023-04-23T15:18:43.004Z,100685.22
2023-04-23T15:23:45.856Z,100671.50
2023-04-23T15:28:49.241Z,100651.66
2023-04-23T15:33:52.041Z,100672.88
2023-04-23T15:38:55.198Z,100667.38
2023-04-23T15:43:58.365Z,100652.28
2023-04-23T15:49:01.160Z,100646.13
2023-04-23T15:54:06.206Z,100652.00
2023-04-23T15:59:09.240Z,100634.31
2023-04-23T16:04:12.564Z,100626.63
2023-04-23T16:09:15.705Z,100615.31
2023-04-23T16:14:18.381Z,100614.25
2023-04-23T16:19:21.753Z,100616.06
2023-04-23T16:24:24.956Z,100606.03
2023-04-23T16:29:27.986Z,100610.72
2023-04-23T16:34:31.155Z,100593.53
2023-04-23T16:39:34.056Z,100587.28
2023-04-23T16:44:36.921Z,100588.13
2023-04-23T16:49:39.834Z,100580.47
2023-04-23T16:54:42.929Z,100575.31
2023-04-23T16:59:45.924Z,100571.22
2023-04-23T17:04:49.077Z,100559.25
2023-04-23T17:09:52.328Z,100556.72
2023-04-23T17:14:55.059Z,100545.84
2023-04-23T17:19:57.847Z,100543.38
2023-04-23T17:25:00.775Z,100536.59
2023-04-23T17:30:03.607Z,100531.50
2023-04-23T17:35:10.551Z,100525.72
2023-04-23T17:40:15.769Z,100511.28
2023-04-23T17:45:19.042Z,100508.03
2023-04-23T17:50:22.421Z,100509.03
2023-04-23T17:55:26.142Z,100498.19
2023-04-23T18:00:29.035Z,100493.97
2023-04-23T18:05:31.987Z,100468.94
2023-04-23T18:10:34.894Z,100481.25
2023-04-23T18:15:38.695Z,100473.59
2023-04-23T18:20:41.457Z,100470.13
2023-04-23T18:25:44.302Z,100462.25
2023-04-23T18:30:47.412Z,100458.66
2023-04-23T18:35:50.297Z,100453.47
2023-04-23T18:40:53.016Z,100442.19
2023-04-23T18:45:56.153Z,100444.47
2023-04-23T18:50:59.669Z,100441.63
2023-04-23T18:56:02.416Z,100438.81
2023-04-23T19:01:05.653Z,100430.25
2023-04-23T19:06:08.532Z,100426.06
2023-04-23T19:11:11.682Z,100425.31
2023-04-23T19:16:17.023Z,100415.25
2023-04-23T19:21:19.908Z,100405.06
2023-04-23T19:26:22.650Z,100409.34
2023-04-23T19:31:25.878Z,100408.47
2023-04-23T19:36:28.729Z,100407.28
2023-04-23T19:41:31.624Z,100404.56
2023-04-23T19:46:34.473Z,100405.41
2023-04-23T19:51:38.375Z,100404.34
2023-04-23T19:56:41.140Z,100384.56
2023-04-23T20:01:44.228Z,100386.25
2023-04-23T20:06:47.293Z,100383.53
2023-04-23T20:11:50.108Z,100377.47
2023-04-23T20:16:53.068Z,100361.25
2023-04-23T20:21:55.881Z,100356.94
2023-04-23T20:26:59.007Z,100358.34
2023-04-23T20:32:01.987Z,100348.81
2023-04-23T20:37:07.096Z,100348.56
2023-04-23T20:42:10.370Z,100336.22
2023-04-23T20:47:14.322Z,100338.44
2023-04-23T20:52:17.238Z,100335.59
2023-04-23T20:57:20.098Z,100325.22
2023-04-23T21:02:22.979Z,100323.78
2023-04-23T21:07:25.817Z,100312.91
2023-04-23T21:12:28.810Z,100314.63
2023-04-23T21:17:31.645Z,100308.53
2023-04-23T21:22:34.898Z,100308.75
2023-04-23T21:27:37.663Z,100303.03
2023-04-23T21:32:40.702Z,100297.19
2023-04-23T21:37:43.418Z,100294.72
2023-04-23T21:42:47.942Z,100287.25
2023-04-23T21:47:51.335Z,100277.34
2023-04-23T21:52:58.768Z,100272.50
2023-04-23T22:03:08.381Z,100266.22
2023-04-23T22:08:11.669Z,100260.28
2023-04-23T22:13:15.446Z,100249.34
2023-04-23T22:18:18.321Z,100245.06
2023-04-23T22:23:21.989Z,100247.75
2023-04-23T22:28:24.726Z,100245.19
2023-04-23T22:33:28.706Z,100234.03
2023-04-23T22:38:31.550Z,100228.16
2023-04-23T22:43:34.370Z,100226.50
2023-04-23T22:48:45.130Z,100224.06
2023-04-23T22:53:47.911Z,100221.47
2023-04-23T22:58:50.682Z,100218.13
2023-04-23T23:03:53.582Z,100210.50
2023-04-23T23:08:56.774Z,100208.09
2023-04-23T23:13:59.870Z,100207.16
2023-04-23T23:19:03.215Z,100193.69
2023-04-23T23:24:06.413Z,100193.88
2023-04-23T23:29:09.143Z,100195.72
2023-04-23T23:34:12.479Z,100195.78
2023-04-23T23:39:19.334Z,100177.22
2023-04-23T23:44:22.125Z,100181.19
2023-04-23T23:49:24.996Z,100161.09
2023-04-23T23:54:27.772Z,100146.00
2023-04-23T23:59:30.539Z,100108.22
